Terminal Aerodrome Forecast
Issued by NWS Cleveland, OH

Home | Current Version | Previous Version | Graphics & Text | Print | Product List | Glossary On
Versions: 1 2 3 4 5 6 7 8 9 10 11 12 13 14 15 16 17
442
FTUS41 KCLE 302338
TAFERI
TAF
KERI 302338Z 0100/0124 19010KT 2SM -SHRA OVC015
     FM010100 26012G20KT 6SM -SHRA BR SCT015 OVC025
      TEMPO 0101/0105 5SM -SHRA OVC015
     FM010500 25012G22KT P6SM VCSH BKN012 OVC020=

USA.gov is the U.S. government's official web portal to all federal, state and local government web resources and services.